createdAt,value
2023-04-27T00:44:47.173Z,12.38
2023-04-27T00:47:14.239Z,14.98
2023-04-27T00:49:41.377Z,13.40
2023-04-27T00:52:08.000Z,14.23
2023-04-27T00:54:35.015Z,14.10
2023-04-27T00:57:02.328Z,14.20
2023-04-27T00:59:29.277Z,13.52
2023-04-27T01:01:56.410Z,13.23
2023-04-27T01:04:23.657Z,15.57
2023-04-27T01:06:50.385Z,14.48
2023-04-27T01:09:19.756Z,13.25
2023-04-27T01:11:47.195Z,13.68
2023-04-27T01:14:13.827Z,13.93
2023-04-27T01:16:40.882Z,12.23
2023-04-27T01:19:08.193Z,12.23
2023-04-27T01:21:34.917Z,17.77
2023-04-27T01:24:01.564Z,13.90
2023-04-27T01:26:28.227Z,13.85
2023-04-27T01:28:54.892Z,14.70
2023-04-27T01:31:21.760Z,13.85
2023-04-27T01:33:48.410Z,15.70
2023-04-27T01:36:15.095Z,14.70
2023-04-27T01:38:42.432Z,17.60
2023-04-27T01:41:09.401Z,20.02
2023-04-27T01:43:39.311Z,16.63
2023-04-27T01:46:14.244Z,14.70
2023-04-27T01:48:41.781Z,16.92
2023-04-27T01:51:08.403Z,14.20
2023-04-27T01:53:35.218Z,14.45
2023-04-27T01:56:01.914Z,12.82
2023-04-27T01:58:28.605Z,12.63
2023-04-27T02:00:55.503Z,16.27
2023-04-27T02:03:22.427Z,13.80
2023-04-27T02:05:49.235Z,13.40
2023-04-27T02:18:04.955Z,15.98
2023-04-27T02:20:32.865Z,16.70
2023-04-27T02:22:59.785Z,19.08
2023-04-27T02:25:26.917Z,13.32
2023-04-27T02:27:53.919Z,15.52
2023-04-27T02:30:21.445Z,22.38
2023-04-27T02:32:48.725Z,13.60
2023-04-27T02:35:15.578Z,23.20
2023-04-27T02:37:42.332Z,23.90
2023-04-27T02:40:09.646Z,21.20
2023-04-27T02:42:38.229Z,15.25
2023-04-27T02:45:07.149Z,18.73
2023-04-27T02:47:34.365Z,18.48
2023-04-27T02:50:01.632Z,15.85
2023-04-27T02:52:28.328Z,19.25
2023-04-27T02:54:57.721Z,18.00
2023-04-27T02:57:24.385Z,19.95
2023-04-27T02:59:51.082Z,15.88
2023-04-27T03:02:17.780Z,14.60
2023-04-27T03:04:44.685Z,15.52
2023-04-27T03:07:13.021Z,17.02
2023-04-27T03:09:39.650Z,17.42
2023-04-27T03:12:06.331Z,15.75
2023-04-27T03:14:33.027Z,18.90
2023-04-27T03:17:00.675Z,19.98
2023-04-27T03:19:27.573Z,26.27
2023-04-27T03:21:54.226Z,15.30
2023-04-27T03:24:21.923Z,15.15
2023-04-27T03:26:48.927Z,16.25
2023-04-27T03:29:15.847Z,14.30
2023-04-27T03:31:42.728Z,15.07
2023-04-27T03:34:09.381Z,18.33
2023-04-27T03:39:03.180Z,17.70
2023-04-27T03:41:29.796Z,18.05
2023-04-27T03:43:56.573Z,15.32
2023-04-27T03:46:23.280Z,19.67
2023-04-27T03:48:49.967Z,21.52
2023-04-27T03:51:17.875Z,16.45
2023-04-27T03:53:44.540Z,18.05
2023-04-27T03:56:11.305Z,18.05
2023-04-27T03:58:38.005Z,23.05
2023-04-27T04:01:04.759Z,43.63
2023-04-27T04:03:31.578Z,18.70
2023-04-27T04:05:58.322Z,17.33
2023-04-27T04:08:24.921Z,19.65
2023-04-27T04:10:51.593Z,22.85
2023-04-27T04:13:18.294Z,18.15
2023-04-27T04:15:45.428Z,26.20
2023-04-27T04:18:12.101Z,24.60
2023-04-27T04:20:38.678Z,20.67
2023-04-27T04:23:05.352Z,19.35
2023-04-27T04:25:32.321Z,19.33
2023-04-27T04:27:59.130Z,22.85
2023-04-27T04:30:26.326Z,27.55
2023-04-27T04:32:53.085Z,22.20
2023-04-27T04:35:20.025Z,20.70
2023-04-27T04:37:46.853Z,22.65
2023-04-27T04:40:14.090Z,66.03
2023-04-27T04:42:41.445Z,22.67
2023-04-27T04:45:08.522Z,21.95
2023-04-27T04:47:35.231Z,24.23
2023-04-27T04:50:02.207Z,20.33
2023-04-27T04:52:29.093Z,34.80
2023-04-27T04:54:55.686Z,27.88
2023-04-27T04:57:22.385Z,25.50
2023-04-27T04:59:48.998Z,18.80
2023-04-27T05:02:15.828Z,23.15
2023-04-27T05:04:42.577Z,19.67
2023-04-27T05:07:14.050Z,19.52
2023-04-27T05:09:41.470Z,29.08
2023-04-27T05:12:08.145Z,30.67
2023-04-27T05:14:35.179Z,20.73
2023-04-27T05:17:05.013Z,22.27
2023-04-27T05:19:31.829Z,18.05
2023-04-27T05:21:59.038Z,21.80
2023-04-27T05:24:27.277Z,17.45
2023-04-27T05:26:55.003Z,17.70
2023-04-27T05:29:22.447Z,13.93
2023-04-27T05:31:49.553Z,17.65
2023-04-27T05:34:16.605Z,14.82
2023-04-27T05:36:43.317Z,19.95
2023-04-27T05:39:10.098Z,18.83
2023-04-27T05:41:36.800Z,24.45
2023-04-27T05:44:03.445Z,14.23
2023-04-27T06:25:46.739Z,23.90
2023-04-27T06:28:13.377Z,11.48
2023-04-27T06:30:39.997Z,10.07
2023-04-27T06:33:06.757Z,17.33
2023-04-27T06:35:33.637Z,14.38
2023-04-27T06:38:00.940Z,17.27
2023-04-27T06:40:27.843Z,13.68
2023-04-27T06:42:54.619Z,15.95
2023-04-27T06:45:24.127Z,13.35
2023-04-27T06:47:50.899Z,20.40
2023-04-27T06:50:17.774Z,20.50
2023-04-27T06:52:47.359Z,19.48
2023-04-27T06:55:14.044Z,15.35
2023-04-27T06:57:40.725Z,18.13
2023-04-27T07:00:08.950Z,14.05
2023-04-27T07:02:35.872Z,19.10
2023-04-27T07:05:02.770Z,26.58
2023-04-27T07:07:29.628Z,20.20
2023-04-27T07:09:56.351Z,12.77
2023-04-27T07:12:22.930Z,33.03
2023-04-27T07:14:51.038Z,13.02
2023-04-27T07:17:17.704Z,14.55
2023-04-27T07:19:44.374Z,16.80
2023-04-27T07:22:11.800Z,11.45
2023-04-27T07:24:38.422Z,20.35
2023-04-27T07:27:05.126Z,13.30
2023-04-27T07:29:32.394Z,10.38
2023-04-27T07:32:04.837Z,14.77
2023-04-27T07:34:41.099Z,21.17
2023-04-27T07:37:11.921Z,16.13
2023-04-27T07:39:38.605Z,8.20
2023-04-27T07:42:05.541Z,21.48
2023-04-27T07:44:32.282Z,11.32
2023-04-27T07:46:58.964Z,9.27
2023-04-27T07:49:26.470Z,12.95
2023-04-27T07:51:53.144Z,11.00
2023-04-27T07:54:19.857Z,10.85
2023-04-27T07:56:53.761Z,13.65
2023-04-27T07:59:20.399Z,9.05
2023-04-27T08:01:47.525Z,13.85
2023-04-27T08:04:17.859Z,9.48
2023-04-27T08:11:44.265Z,7.20
2023-04-27T08:33:52.622Z,4.47
2023-04-27T08:36:24.370Z,6.03
2023-04-27T08:39:03.396Z,6.28
2023-04-27T08:41:32.017Z,7.75
2023-04-27T08:44:00.472Z,6.45
2023-04-27T08:46:27.266Z,5.43
2023-04-27T08:48:54.447Z,5.80
2023-04-27T08:51:27.502Z,20.90
2023-04-27T08:53:56.920Z,6.83
2023-04-27T08:56:27.664Z,8.02
2023-04-27T08:58:58.777Z,9.07
2023-04-27T09:01:27.599Z,5.75
2023-04-27T09:03:59.064Z,4.95
2023-04-27T09:06:36.389Z,5.78
2023-04-27T09:09:04.295Z,8.02
2023-04-27T09:11:36.064Z,9.43
2023-04-27T09:14:15.712Z,8.52
2023-04-27T09:16:42.861Z,9.30
2023-04-27T09:19:09.600Z,5.25
2023-04-27T09:21:36.358Z,6.50
2023-04-27T09:24:13.566Z,4.90
2023-04-27T09:26:42.194Z,9.25
2023-04-27T09:29:09.206Z,9.05
2023-04-27T09:31:36.762Z,9.52
2023-04-27T09:34:04.816Z,7.78
2023-04-27T09:36:32.762Z,8.48
2023-04-27T09:39:06.060Z,7.50
2023-04-27T09:41:33.439Z,7.90
2023-04-27T09:44:05.130Z,4.50
2023-04-27T09:46:33.745Z,12.25
2023-04-27T09:49:01.413Z,6.85
2023-04-27T10:33:07.662Z,6.93
2023-04-27T10:35:41.136Z,8.05
2023-04-27T10:38:16.585Z,5.83
2023-04-27T10:41:05.894Z,8.23
2023-04-27T10:43:35.039Z,7.13
2023-04-27T10:46:16.414Z,7.28
2023-04-27T10:48:44.695Z,3.35
2023-04-27T10:51:16.686Z,5.35
2023-04-27T10:53:43.491Z,5.07
2023-04-27T10:56:10.598Z,8.00
2023-04-27T11:01:08.844Z,4.97
2023-04-27T11:03:36.422Z,8.35
2023-04-27T11:06:05.737Z,6.50
2023-04-27T11:08:36.792Z,6.07
2023-04-27T11:11:05.130Z,5.18
2023-04-27T11:13:34.958Z,5.35
2023-04-27T11:16:01.767Z,4.28
2023-04-27T11:18:33.851Z,6.13
2023-04-27T11:21:10.690Z,3.67
2023-04-27T11:23:38.757Z,10.30
2023-04-27T11:26:33.970Z,11.63
2023-04-27T11:29:08.085Z,13.25
2023-04-27T11:31:52.187Z,7.05
2023-04-27T11:34:26.652Z,5.95
2023-04-27T11:39:41.743Z,9.25
2023-04-27T11:42:22.162Z,6.55
2023-04-27T11:45:02.818Z,20.38
2023-04-27T11:47:33.877Z,8.05
2023-04-27T11:50:05.054Z,6.07
2023-04-27T11:52:36.301Z,7.75
2023-04-27T11:55:04.179Z,20.65
2023-04-27T11:57:33.043Z,9.25
2023-04-27T12:00:01.666Z,8.50
2023-04-27T12:02:34.119Z,5.40
2023-04-27T12:05:01.503Z,7.75
2023-04-27T12:07:30.804Z,7.30
2023-04-27T12:09:58.953Z,11.80
2023-04-27T12:12:27.518Z,6.50
2023-04-27T12:14:54.379Z,5.28
2023-04-27T12:17:21.307Z,14.18
2023-04-27T12:19:48.021Z,7.80
2023-04-27T12:22:14.692Z,7.13
2023-04-27T12:24:41.397Z,6.07
2023-04-27T12:27:08.440Z,6.82
2023-04-27T12:29:35.108Z,5.72
2023-04-27T12:32:04.065Z,11.25
2023-04-27T12:34:30.903Z,5.97
2023-04-27T12:37:00.326Z,7.45
2023-04-27T12:39:27.117Z,8.65
2023-04-27T12:42:00.291Z,9.27
2023-04-27T12:44:27.262Z,7.72
2023-04-27T12:46:55.135Z,5.45
2023-04-27T12:49:27.335Z,3.72
2023-04-27T12:51:54.268Z,7.45
2023-04-27T12:54:23.909Z,4.70
2023-04-27T12:56:51.245Z,6.57
2023-04-27T12:59:18.125Z,6.63
2023-04-27T13:01:51.748Z,5.47
2023-04-27T13:04:20.992Z,6.05
2023-04-27T13:06:48.330Z,5.60
2023-04-27T13:09:15.542Z,9.90
2023-04-27T13:11:42.333Z,8.73
2023-04-27T13:14:09.910Z,6.03
2023-04-27T13:16:36.728Z,4.50
2023-04-27T13:19:03.430Z,6.30
2023-04-27T13:21:30.367Z,8.48
2023-04-27T13:23:59.535Z,8.55
2023-04-27T13:26:26.958Z,8.88
2023-04-27T13:28:53.676Z,7.03
2023-04-27T13:31:20.427Z,4.57
2023-04-27T13:33:47.125Z,5.30
2023-04-27T13:36:14.243Z,7.25
2023-04-27T14:03:20.930Z,5.68
2023-04-27T14:30:33.540Z,8.70
2023-04-27T14:33:00.306Z,5.63
2023-04-27T14:35:28.023Z,8.23
2023-04-27T14:37:58.556Z,5.95
2023-04-27T14:40:27.700Z,5.50
2023-04-27T15:07:47.724Z,5.32
2023-04-27T15:10:15.448Z,7.18
2023-04-27T15:12:44.438Z,6.40
2023-04-27T15:15:12.876Z,5.05
2023-04-27T15:44:51.811Z,6.18
2023-04-27T15:47:18.547Z,11.45
2023-04-27T15:49:57.011Z,7.57
2023-04-27T15:52:24.422Z,8.52
2023-04-27T15:54:51.126Z,6.80
2023-04-27T15:57:18.531Z,11.80
2023-04-27T15:59:45.191Z,7.25
2023-04-27T16:02:13.208Z,10.00
2023-04-27T16:04:42.618Z,5.28
2023-04-27T16:07:10.699Z,10.20
2023-04-27T16:09:37.738Z,8.55
2023-04-27T16:12:07.256Z,5.25
2023-04-27T16:14:36.094Z,6.68
2023-04-27T16:17:06.006Z,8.10
2023-04-27T16:19:35.117Z,7.22
2023-04-27T16:24:42.407Z,8.82
2023-04-27T16:27:11.781Z,7.97
2023-04-27T16:29:41.073Z,5.82
2023-04-27T16:32:21.999Z,10.80
2023-04-27T16:34:48.918Z,7.88
2023-04-27T16:37:15.930Z,6.35
2023-04-27T16:39:42.556Z,7.32
2023-04-27T16:42:09.818Z,6.30
2023-04-27T16:44:37.970Z,7.82
2023-04-27T16:47:04.835Z,5.43
2023-04-27T16:49:31.561Z,7.38
2023-04-27T16:51:58.286Z,9.57
2023-04-27T16:54:24.938Z,7.88
2023-04-27T16:56:55.230Z,16.60
2023-04-27T16:59:24.319Z,6.47
2023-04-27T17:01:51.337Z,5.55
2023-04-27T17:04:20.221Z,20.88
2023-04-27T17:06:49.570Z,8.40
2023-04-27T17:09:17.770Z,10.82
2023-04-27T17:11:44.549Z,9.85
2023-04-27T17:14:11.215Z,8.02
2023-04-27T17:16:37.846Z,8.98
2023-04-27T17:19:13.329Z,15.40
2023-04-27T17:21:40.131Z,9.45
2023-04-27T17:24:07.034Z,9.90
2023-04-27T17:26:33.656Z,29.60
2023-04-27T17:29:01.354Z,10.38
2023-04-27T17:31:30.076Z,11.32
2023-04-27T17:33:56.705Z,9.27
2023-04-27T17:36:23.325Z,5.55
2023-04-27T17:38:49.960Z,17.40
2023-04-27T17:41:16.556Z,9.10
2023-04-27T17:43:43.293Z,14.45
2023-04-27T17:46:10.162Z,14.70
2023-04-27T17:48:37.469Z,12.80
2023-04-27T17:51:06.914Z,11.60
2023-04-27T17:53:42.560Z,10.10
2023-04-27T18:03:28.929Z,10.25
2023-04-27T18:05:57.162Z,8.38
2023-04-27T18:08:23.772Z,10.02
2023-04-27T18:10:50.798Z,7.47
2023-04-27T18:13:17.391Z,9.73
2023-04-27T18:15:44.106Z,6.82
2023-04-27T18:18:11.999Z,10.85
2023-04-27T18:20:38.615Z,11.68
2023-04-27T18:23:05.233Z,10.50
2023-04-27T18:25:32.123Z,10.23
2023-04-27T18:28:00.902Z,5.78
2023-04-27T18:30:30.855Z,10.90
2023-04-27T18:32:57.537Z,8.25
2023-04-27T18:35:26.630Z,7.28
2023-04-27T18:37:56.294Z,10.77
2023-04-27T18:40:27.724Z,11.82
2023-04-27T18:42:54.394Z,10.10
2023-04-27T18:45:21.383Z,9.20
2023-04-27T18:47:48.090Z,8.90
2023-04-27T18:50:14.893Z,10.75
2023-04-27T18:52:41.764Z,8.68
2023-04-27T18:55:37.040Z,10.95
2023-04-27T18:58:03.664Z,25.85
2023-04-27T19:00:35.997Z,12.18
2023-04-27T19:03:08.170Z,9.73
2023-04-27T19:05:42.950Z,7.53
2023-04-27T19:08:10.323Z,10.65
2023-04-27T19:10:41.589Z,13.18
2023-04-27T19:13:08.320Z,12.30
2023-04-27T19:15:35.125Z,10.82
2023-04-27T19:18:10.493Z,9.65
2023-04-27T19:20:41.537Z,20.50
2023-04-27T19:23:12.639Z,30.70
2023-04-27T19:25:40.373Z,9.77
2023-04-27T19:28:07.099Z,23.63
2023-04-27T19:30:34.193Z,24.23
2023-04-27T19:33:01.363Z,26.73
2023-04-27T19:35:28.138Z,18.27
2023-04-27T19:37:54.794Z,20.70
2023-04-27T19:40:21.578Z,11.63
2023-04-27T19:42:48.391Z,20.90
2023-04-27T19:45:15.456Z,17.25
2023-04-27T19:47:42.207Z,20.60
2023-04-27T19:50:09.307Z,32.78
2023-04-27T19:52:38.253Z,21.20
2023-04-27T19:55:05.212Z,18.25
2023-04-27T19:57:32.674Z,24.13
2023-04-27T19:59:59.649Z,18.92
2023-04-27T20:02:26.321Z,22.23
2023-04-27T20:04:56.503Z,19.60
2023-04-27T20:07:23.556Z,20.20
2023-04-27T20:09:50.400Z,25.92
2023-04-27T20:12:40.297Z,16.92
2023-04-27T20:15:05.341Z,21.17
2023-04-27T20:17:32.158Z,21.85
2023-04-27T20:19:58.847Z,18.85
2023-04-27T20:22:25.752Z,15.65
2023-04-27T20:24:52.378Z,13.63
2023-04-27T20:27:19.008Z,13.43
2023-04-27T20:29:47.313Z,14.40
2023-04-27T20:32:14.006Z,15.07
2023-04-27T20:34:40.720Z,14.10
2023-04-27T20:37:07.602Z,13.73
2023-04-27T20:39:35.086Z,12.40
2023-04-27T20:42:01.740Z,13.82
2023-04-27T20:44:28.384Z,12.77
2023-04-27T20:46:55.000Z,22.80
2023-04-27T20:49:31.936Z,9.98
2023-04-27T20:52:01.659Z,11.52
2023-04-27T20:54:28.454Z,14.88
2023-04-27T20:56:55.093Z,11.15
2023-04-27T20:59:21.724Z,13.32
2023-04-27T21:01:48.532Z,17.02
2023-04-27T21:04:41.977Z,27.23
2023-04-27T21:07:08.716Z,17.38
2023-04-27T21:09:36.315Z,16.08
2023-04-27T21:12:02.951Z,25.00
2023-04-27T21:14:29.583Z,16.50
2023-04-27T21:16:56.426Z,19.17
2023-04-27T21:19:23.553Z,18.05
2023-04-27T21:21:50.198Z,16.77
2023-04-27T21:24:28.204Z,20.40
2023-04-27T21:26:54.880Z,20.02
2023-04-27T21:29:21.491Z,14.82
2023-04-27T21:31:48.077Z,18.23
2023-04-27T21:34:15.075Z,15.18
2023-04-27T21:36:42.017Z,12.43
2023-04-27T21:39:08.894Z,12.60
2023-04-27T21:41:35.844Z,13.52
2023-04-27T21:44:02.574Z,14.43
2023-04-27T21:46:29.247Z,13.30
2023-04-27T21:48:55.881Z,18.02
2023-04-27T21:51:22.499Z,11.10
2023-04-27T21:53:49.101Z,18.17
2023-04-27T21:56:15.876Z,24.25
2023-04-27T21:58:42.504Z,18.13
2023-04-27T22:01:09.168Z,16.65
2023-04-27T22:03:39.153Z,11.43
2023-04-27T22:06:06.368Z,18.88
2023-04-27T22:08:33.125Z,13.55
2023-04-27T22:10:59.675Z,19.58
2023-04-27T22:13:26.418Z,16.92
2023-04-27T22:15:53.178Z,15.38
2023-04-27T22:18:19.988Z,14.80
2023-04-27T22:20:47.385Z,12.27
2023-04-27T22:23:14.028Z,15.40
2023-04-27T22:25:42.875Z,14.32
2023-04-27T22:28:10.440Z,13.55
2023-04-27T22:30:37.160Z,21.63
2023-04-27T22:33:03.925Z,13.77
2023-04-27T22:35:30.988Z,11.20
2023-04-27T22:37:59.262Z,13.15
2023-04-27T22:40:26.255Z,12.25
2023-04-27T22:42:53.842Z,12.43
2023-04-27T22:45:21.391Z,16.70
2023-04-27T22:47:51.960Z,11.40
2023-04-27T22:50:18.692Z,16.90
2023-04-27T22:52:45.461Z,10.70
2023-04-27T22:55:12.720Z,13.00
2023-04-27T22:57:40.317Z,10.35
2023-04-27T23:00:11.846Z,13.60
2023-04-27T23:02:42.816Z,10.23
2023-04-27T23:05:11.024Z,10.20
2023-04-27T23:07:38.247Z,10.75
2023-04-27T23:10:05.982Z,10.38
2023-04-27T23:12:33.280Z,10.68
2023-04-27T23:15:00.058Z,14.48
2023-04-27T23:17:30.579Z,12.38
2023-04-27T23:20:01.748Z,13.15
2023-04-27T23:22:31.185Z,11.80
2023-04-27T23:24:57.802Z,8.60
2023-04-27T23:27:25.093Z,18.55
2023-04-27T23:29:51.888Z,8.73
2023-04-27T23:32:18.867Z,10.18
2023-04-27T23:34:45.472Z,10.32
2023-04-27T23:37:12.190Z,8.30
2023-04-27T23:39:38.854Z,9.65
2023-04-27T23:42:05.588Z,11.55
2023-04-27T23:44:32.180Z,10.57
2023-04-27T23:46:59.293Z,9.88
2023-04-27T23:49:25.925Z,10.95
2023-04-27T23:51:52.848Z,10.02
2023-04-27T23:54:19.550Z,7.07
2023-04-27T23:56:46.200Z,10.07
2023-04-27T23:59:15.044Z,8.07
